Terminal Aerodrome Forecast
Issued by NWS

Home | Current Version | Previous Version | Text Only | Print | Product List | Glossary On
Versions: 1 2 3 4 5 6 7 8 9 10 11 12 13 14 15 16 17 18 19 20 21 22
000
FTUS44 KTSA 182300
TAFBVO
TAF
KBVO 182321Z 1900/1924 13008KT P6SM BKN050
     FM190200 13003KT P6SM VCTS BKN050CB
      TEMPO 1904/1908 VRB15G35KT 2SM -TSRA BR BKN030CB
     FM190900 00000KT 4SM BR OVC012 PROB30 1909/1915 4SM -TSRA BR
      BKN025CB
     FM191500 VRB06KT P6SM VCTS BKN050CB
      TEMPO 1918/1922 2SM TSRA BR BKN030CB
     FM192200 33008G17KT P6SM BKN050=

USA.gov is the U.S. government's official web portal to all federal, state and local government web resources and services.